sensor_id;sensor_type;location;lat;lon;timestamp;pressure;altitude;pressure_sealevel;temperature
50206;BMP280;36098;48.390;10.856;2022-09-01T00:02:12;96311.81;;;26.34
50206;BMP280;36098;48.390;10.856;2022-09-01T00:04:40;96306.19;;;26.41
50206;BMP280;36098;48.390;10.856;2022-09-01T00:07:07;96311.97;;;26.43
50206;BMP280;36098;48.390;10.856;2022-09-01T00:09:34;96303.81;;;26.39
50206;BMP280;36098;48.390;10.856;2022-09-01T00:12:00;96312.63;;;26.35
50206;BMP280;36098;48.390;10.856;2022-09-01T00:14:34;96308.34;;;26.39
50206;BMP280;36098;48.390;10.856;2022-09-01T00:17:02;96305.19;;;26.37
50206;BMP280;36098;48.390;10.856;2022-09-01T00:19:28;96306.31;;;26.31
50206;BMP280;36098;48.390;10.856;2022-09-01T00:21:54;96307.53;;;26.38
50206;BMP280;36098;48.390;10.856;2022-09-01T00:24:20;96302.47;;;26.42
50206;BMP280;36098;48.390;10.856;2022-09-01T00:26:46;96297.00;;;26.33
50206;BMP280;36098;48.390;10.856;2022-09-01T00:29:12;96291.72;;;26.33
50206;BMP280;36098;48.390;10.856;2022-09-01T00:31:38;96300.97;;;26.36
50206;BMP280;36098;48.390;10.856;2022-09-01T00:34:03;96296.66;;;26.40
50206;BMP280;36098;48.390;10.856;2022-09-01T00:36:28;96296.44;;;26.36
50206;BMP280;36098;48.390;10.856;2022-09-01T00:38:54;96295.22;;;26.29
50206;BMP280;36098;48.390;10.856;2022-09-01T00:41:22;96301.53;;;26.33
50206;BMP280;36098;48.390;10.856;2022-09-01T00:43:54;96293.06;;;26.31
50206;BMP280;36098;48.390;10.856;2022-09-01T00:46:25;96292.94;;;26.41
50206;BMP280;36098;48.390;10.856;2022-09-01T00:48:55;96297.66;;;26.44
50206;BMP280;36098;48.390;10.856;2022-09-01T00:51:21;96297.81;;;26.34
50206;BMP280;36098;48.390;10.856;2022-09-01T00:53:46;96303.53;;;26.41
50206;BMP280;36098;48.390;10.856;2022-09-01T00:56:12;96295.66;;;26.36
50206;BMP280;36098;48.390;10.856;2022-09-01T00:58:38;96304.00;;;26.48
50206;BMP280;36098;48.390;10.856;2022-09-01T01:01:08;96294.53;;;26.42
50206;BMP280;36098;48.390;10.856;2022-09-01T01:03:34;96290.50;;;26.26
50206;BMP280;36098;48.390;10.856;2022-09-01T01:06:02;96297.34;;;26.27
50206;BMP280;36098;48.390;10.856;2022-09-01T01:08:30;96294.09;;;26.35
50206;BMP280;36098;48.390;10.856;2022-09-01T01:10:59;96294.59;;;26.37
50206;BMP280;36098;48.390;10.856;2022-09-01T01:13:24;96300.88;;;26.41
50206;BMP280;36098;48.390;10.856;2022-09-01T01:15:51;96297.16;;;26.42
50206;BMP280;36098;48.390;10.856;2022-09-01T01:18:17;96301.97;;;26.40
50206;BMP280;36098;48.390;10.856;2022-09-01T01:20:42;96291.94;;;26.37
50206;BMP280;36098;48.390;10.856;2022-09-01T01:23:30;96287.06;;;26.44
50206;BMP280;36098;48.390;10.856;2022-09-01T01:26:01;96290.41;;;26.31
50206;BMP280;36098;48.390;10.856;2022-09-01T01:28:32;96282.19;;;26.32
50206;BMP280;36098;48.390;10.856;2022-09-01T01:30:59;96283.84;;;26.28
50206;BMP280;36098;48.390;10.856;2022-09-01T01:33:32;96283.00;;;26.33
50206;BMP280;36098;48.390;10.856;2022-09-01T01:35:58;96280.34;;;26.33
50206;BMP280;36098;48.390;10.856;2022-09-01T01:38:25;96283.00;;;26.33
50206;BMP280;36098;48.390;10.856;2022-09-01T01:40:52;96285.50;;;26.24
50206;BMP280;36098;48.390;10.856;2022-09-01T01:43:20;96274.44;;;26.17
50206;BMP280;36098;48.390;10.856;2022-09-01T01:45:52;96275.97;;;26.23
50206;BMP280;36098;48.390;10.856;2022-09-01T01:48:19;96281.69;;;26.30
50206;BMP280;36098;48.390;10.856;2022-09-01T01:50:51;96271.84;;;26.36
50206;BMP280;36098;48.390;10.856;2022-09-01T01:53:18;96279.56;;;26.32
50206;BMP280;36098;48.390;10.856;2022-09-01T01:55:47;96276.06;;;26.37
50206;BMP280;36098;48.390;10.856;2022-09-01T01:58:16;96279.06;;;26.30
50206;BMP280;36098;48.390;10.856;2022-09-01T02:00:44;96279.91;;;26.26
50206;BMP280;36098;48.390;10.856;2022-09-01T02:03:11;96273.03;;;26.25
50206;BMP280;36098;48.390;10.856;2022-09-01T02:05:47;96281.47;;;26.27
50206;BMP280;36098;48.390;10.856;2022-09-01T02:08:13;96280.53;;;26.18
50206;BMP280;36098;48.390;10.856;2022-09-01T02:10:45;96283.97;;;26.18
50206;BMP280;36098;48.390;10.856;2022-09-01T02:13:15;96284.63;;;26.29
50206;BMP280;36098;48.390;10.856;2022-09-01T02:15:46;96283.00;;;26.33
50206;BMP280;36098;48.390;10.856;2022-09-01T02:18:16;96281.34;;;26.37
50206;BMP280;36098;48.390;10.856;2022-09-01T02:20:43;96274.50;;;26.36
50206;BMP280;36098;48.390;10.856;2022-09-01T02:23:10;96277.97;;;26.31
50206;BMP280;36098;48.390;10.856;2022-09-01T02:25:42;96273.25;;;26.28
50206;BMP280;36098;48.390;10.856;2022-09-01T02:28:10;96276.69;;;26.29
50206;BMP280;36098;48.390;10.856;2022-09-01T02:30:40;96279.06;;;26.30
50206;BMP280;36098;48.390;10.856;2022-09-01T02:33:06;96277.19;;;26.31
50206;BMP280;36098;48.390;10.856;2022-09-01T02:35:34;96279.06;;;26.30
50206;BMP280;36098;48.390;10.856;2022-09-01T02:38:02;96279.31;;;26.29
50206;BMP280;36098;48.390;10.856;2022-09-01T02:40:27;96271.22;;;26.20
50206;BMP280;36098;48.390;10.856;2022-09-01T02:42:57;96275.25;;;26.18
50206;BMP280;36098;48.390;10.856;2022-09-01T02:45:24;96274.19;;;26.19
50206;BMP280;36098;48.390;10.856;2022-09-01T02:47:50;96274.44;;;26.17
50206;BMP280;36098;48.390;10.856;2022-09-01T02:50:16;96280.03;;;26.16
50206;BMP280;36098;48.390;10.856;2022-09-01T02:52:44;96274.75;;;26.16
50206;BMP280;36098;48.390;10.856;2022-09-01T02:55:10;96268.88;;;26.19
50206;BMP280;36098;48.390;10.856;2022-09-01T02:57:35;96270.16;;;26.21
50206;BMP280;36098;48.390;10.856;2022-09-01T03:00:02;96270.53;;;26.15
50206;BMP280;36098;48.390;10.856;2022-09-01T03:02:28;96268.72;;;26.10
50206;BMP280;36098;48.390;10.856;2022-09-01T03:04:54;96269.78;;;26.09
50206;BMP280;36098;48.390;10.856;2022-09-01T03:07:20;96269.50;;;26.11
50206;BMP280;36098;48.390;10.856;2022-09-01T03:09:48;96266.84;;;26.11
50206;BMP280;36098;48.390;10.856;2022-09-01T03:12:13;96277.25;;;26.07
50206;BMP280;36098;48.390;10.856;2022-09-01T03:14:39;96263.78;;;26.04
50206;BMP280;36098;48.390;10.856;2022-09-01T03:17:04;96264.84;;;26.03
50206;BMP280;36098;48.390;10.856;2022-09-01T03:19:29;96266.41;;;26.04
50206;BMP280;36098;48.390;10.856;2022-09-01T03:22:04;96262.69;;;26.05
50206;BMP280;36098;48.390;10.856;2022-09-01T03:24:29;96265.84;;;26.07
50206;BMP280;36098;48.390;10.856;2022-09-01T03:26:55;96263.69;;;26.09
50206;BMP280;36098;48.390;10.856;2022-09-01T03:29:20;96264.16;;;26.16
50206;BMP280;36098;48.390;10.856;2022-09-01T03:31:46;96255.06;;;26.03
50206;BMP280;36098;48.390;10.856;2022-09-01T03:34:11;96257.34;;;26.10
50206;BMP280;36098;48.390;10.856;2022-09-01T03:36:37;96266.31;;;26.14
50206;BMP280;36098;48.390;10.856;2022-09-01T03:39:03;96261.06;;;26.09
50206;BMP280;36098;48.390;10.856;2022-09-01T03:41:29;96257.91;;;26.07
50206;BMP280;36098;48.390;10.856;2022-09-01T03:43:55;96256.50;;;26.14
50206;BMP280;36098;48.390;10.856;2022-09-01T03:46:22;96256.25;;;26.11
50206;BMP280;36098;48.390;10.856;2022-09-01T03:48:51;96249.19;;;26.06
50206;BMP280;36098;48.390;10.856;2022-09-01T03:51:18;96255.59;;;26.00
50206;BMP280;36098;48.390;10.856;2022-09-01T03:53:44;96245.81;;;26.01
50206;BMP280;36098;48.390;10.856;2022-09-01T03:56:10;96248.84;;;26.13
50206;BMP280;36098;48.390;10.856;2022-09-01T03:58:36;96248.28;;;26.16
50206;BMP280;36098;48.390;10.856;2022-09-01T04:01:01;96251.78;;;26.11
50206;BMP280;36098;48.390;10.856;2022-09-01T04:03:30;96260.78;;;26.10
50206;BMP280;36098;48.390;10.856;2022-09-01T04:05:57;96242.91;;;26.02
50206;BMP280;36098;48.390;10.856;2022-09-01T04:08:23;96247.16;;;25.98
50206;BMP280;36098;48.390;10.856;2022-09-01T04:10:52;96262.84;;;25.95
50206;BMP280;36098;48.390;10.856;2022-09-01T04:13:21;96251.63;;;26.03
50206;BMP280;36098;48.390;10.856;2022-09-01T04:15:47;96253.91;;;26.09
50206;BMP280;36098;48.390;10.856;2022-09-01T04:18:12;96252.50;;;26.17
50206;BMP280;36098;48.390;10.856;2022-09-01T04:20:47;96257.63;;;26.08
50206;BMP280;36098;48.390;10.856;2022-09-01T04:26:03;96245.97;;;26.09
50206;BMP280;36098;48.390;10.856;2022-09-01T04:28:34;96245.56;;;26.02
50206;BMP280;36098;48.390;10.856;2022-09-01T04:31:03;96248.84;;;26.13
50206;BMP280;36098;48.390;10.856;2022-09-01T04:33:35;96243.56;;;26.13
50206;BMP280;36098;48.390;10.856;2022-09-01T04:36:23;96244.34;;;26.13
50206;BMP280;36098;48.390;10.856;2022-09-01T04:38:52;96245.91;;;26.14
50206;BMP280;36098;48.390;10.856;2022-09-01T04:41:19;96250.19;;;26.10
50206;BMP280;36098;48.390;10.856;2022-09-01T04:43:47;96248.91;;;26.08
50206;BMP280;36098;48.390;10.856;2022-09-01T04:46:14;96243.56;;;26.13
50206;BMP280;36098;48.390;10.856;2022-09-01T04:48:40;96246.13;;;26.18
50206;BMP280;36098;48.390;10.856;2022-09-01T04:51:08;96242.50;;;26.14
50206;BMP280;36098;48.390;10.856;2022-09-01T04:53:35;96244.56;;;26.17
50206;BMP280;36098;48.390;10.856;2022-09-01T04:56:05;96245.41;;;26.12
50206;BMP280;36098;48.390;10.856;2022-09-01T04:58:32;96244.91;;;26.10
50206;BMP280;36098;48.390;10.856;2022-09-01T05:00:58;96238.66;;;26.01
50206;BMP280;36098;48.390;10.856;2022-09-01T05:03:24;96246.06;;;26.04
50206;BMP280;36098;48.390;10.856;2022-09-01T05:05:50;96240.38;;;26.11
50206;BMP280;36098;48.390;10.856;2022-09-01T05:08:19;96248.06;;;26.12
50206;BMP280;36098;48.390;10.856;2022-09-01T05:10:48;96248.13;;;26.07
50206;BMP280;36098;48.390;10.856;2022-09-01T05:13:17;96247.25;;;26.12
50206;BMP280;36098;48.390;10.856;2022-09-01T05:15:44;96241.03;;;26.03
50206;BMP280;36098;48.390;10.856;2022-09-01T05:18:12;96243.81;;;25.93
50206;BMP280;36098;48.390;10.856;2022-09-01T05:20:39;96249.31;;;25.96
50206;BMP280;36098;48.390;10.856;2022-09-01T05:23:06;96248.75;;;25.99
50206;BMP280;36098;48.390;10.856;2022-09-01T05:25:37;96250.53;;;26.04
50206;BMP280;36098;48.390;10.856;2022-09-01T05:28:03;96246.97;;;25.95
50206;BMP280;36098;48.390;10.856;2022-09-01T05:30:28;96258.25;;;26.00
50206;BMP280;36098;48.390;10.856;2022-09-01T05:32:53;96251.63;;;26.03
50206;BMP280;36098;48.390;10.856;2022-09-01T05:35:19;96254.00;;;26.04
50206;BMP280;36098;48.390;10.856;2022-09-01T05:37:44;96241.84;;;26.03
50206;BMP280;36098;48.390;10.856;2022-09-01T05:40:10;96257.47;;;26.00
50206;BMP280;36098;48.390;10.856;2022-09-01T05:42:42;96258.25;;;26.00
50206;BMP280;36098;48.390;10.856;2022-09-01T05:45:08;96255.06;;;26.03
50206;BMP280;36098;48.390;10.856;2022-09-01T05:47:37;96248.97;;;26.03
50206;BMP280;36098;48.390;10.856;2022-09-01T05:50:03;96254.69;;;26.10
50206;BMP280;36098;48.390;10.856;2022-09-01T05:52:32;96243.69;;;26.03
50206;BMP280;36098;48.390;10.856;2022-09-01T05:54:58;96243.41;;;26.04
50206;BMP280;36098;48.390;10.856;2022-09-01T05:57:24;96246.41;;;25.98
50206;BMP280;36098;48.390;10.856;2022-09-01T05:59:49;96247.13;;;26.03
50206;BMP280;36098;48.390;10.856;2022-09-01T06:02:20;96244.91;;;26.10
50206;BMP280;36098;48.390;10.856;2022-09-01T06:04:46;96245.19;;;26.09
50206;BMP280;36098;48.390;10.856;2022-09-01T06:07:12;96252.13;;;26.05
50206;BMP280;36098;48.390;10.856;2022-09-01T06:09:41;96255.16;;;25.93
50206;BMP280;36098;48.390;10.856;2022-09-01T06:12:07;96254.41;;;25.93
50206;BMP280;36098;48.390;10.856;2022-09-01T06:14:47;96251.69;;;25.98
50206;BMP280;36098;48.390;10.856;2022-09-01T06:17:13;96261.28;;;25.94
50206;BMP280;36098;48.390;10.856;2022-09-01T06:19:40;96257.03;;;25.93
50206;BMP280;36098;48.390;10.856;2022-09-01T06:22:06;96257.53;;;25.95
50206;BMP280;36098;48.390;10.856;2022-09-01T06:24:35;96264.97;;;25.93
50206;BMP280;36098;48.390;10.856;2022-09-01T06:27:01;96270.81;;;25.90
50206;BMP280;36098;48.390;10.856;2022-09-01T06:29:26;96266.09;;;25.87
50206;BMP280;36098;48.390;10.856;2022-09-01T06:31:53;96265.59;;;25.85
50206;BMP280;36098;48.390;10.856;2022-09-01T06:34:19;96269.31;;;25.84
50206;BMP280;36098;48.390;10.856;2022-09-01T06:36:46;96276.09;;;25.90
50206;BMP280;36098;48.390;10.856;2022-09-01T06:39:13;96259.16;;;25.91
50206;BMP280;36098;48.390;10.856;2022-09-01T06:41:45;96272.69;;;25.89
50206;BMP280;36098;48.390;10.856;2022-09-01T06:44:12;96272.97;;;25.88
50206;BMP280;36098;48.390;10.856;2022-09-01T06:46:38;96278.47;;;25.91
50206;BMP280;36098;48.390;10.856;2022-09-01T06:49:04;96283.72;;;25.96
50206;BMP280;36098;48.390;10.856;2022-09-01T06:51:29;96285.00;;;25.99
50206;BMP280;36098;48.390;10.856;2022-09-01T06:53:56;96286.09;;;25.98
50206;BMP280;36098;48.390;10.856;2022-09-01T06:56:26;96276.44;;;26.07
50206;BMP280;36098;48.390;10.856;2022-09-01T06:58:54;96293.69;;;26.04
50206;BMP280;36098;48.390;10.856;2022-09-01T07:01:20;96292.16;;;25.98
50206;BMP280;36098;48.390;10.856;2022-09-01T07:03:48;96294.53;;;26.00
50206;BMP280;36098;48.390;10.856;2022-09-01T07:06:15;96301.81;;;26.08
50206;BMP280;36098;48.390;10.856;2022-09-01T07:08:42;96298.47;;;26.02
50206;BMP280;36098;48.390;10.856;2022-09-01T07:11:19;96305.69;;;25.97
50206;BMP280;36098;48.390;10.856;2022-09-01T07:13:49;96295.53;;;26.04
50206;BMP280;36098;48.390;10.856;2022-09-01T07:16:18;96305.53;;;26.07
50206;BMP280;36098;48.390;10.856;2022-09-01T07:18:53;96303.47;;;26.04
50206;BMP280;36098;48.390;10.856;2022-09-01T07:21:23;96303.88;;;25.92
50206;BMP280;36098;48.390;10.856;2022-09-01T07:23:49;96302.03;;;25.93
50206;BMP280;36098;48.390;10.856;2022-09-01T07:26:15;96290.19;;;25.85
50206;BMP280;36098;48.390;10.856;2022-09-01T07:28:47;96298.31;;;25.94
50206;BMP280;36098;48.390;10.856;2022-09-01T07:31:24;96295.69;;;25.89
50206;BMP280;36098;48.390;10.856;2022-09-01T07:33:51;96301.78;;;25.89
50206;BMP280;36098;48.390;10.856;2022-09-01T07:36:19;96303.88;;;25.92
50206;BMP280;36098;48.390;10.856;2022-09-01T07:38:45;96301.56;;;25.86
50206;BMP280;36098;48.390;10.856;2022-09-01T07:41:22;96308.44;;;25.82
50206;BMP280;36098;48.390;10.856;2022-09-01T07:43:48;96309.22;;;25.87
50206;BMP280;36098;48.390;10.856;2022-09-01T07:46:16;96309.50;;;25.86
50206;BMP280;36098;48.390;10.856;2022-09-01T07:48:42;96319.28;;;25.85
50206;BMP280;36098;48.390;10.856;2022-09-01T07:51:10;96313.22;;;25.80
50206;BMP280;36098;48.390;10.856;2022-09-01T07:53:36;96311.56;;;25.89
50206;BMP280;36098;48.390;10.856;2022-09-01T07:56:07;96317.41;;;25.86
50206;BMP280;36098;48.390;10.856;2022-09-01T07:58:35;96316.91;;;25.84
50206;BMP280;36098;48.390;10.856;2022-09-01T08:01:06;96316.94;;;25.79
50206;BMP280;36098;48.390;10.856;2022-09-01T08:03:32;96320.56;;;25.88
50206;BMP280;36098;48.390;10.856;2022-09-01T08:06:05;96328.25;;;25.89
50206;BMP280;36098;48.390;10.856;2022-09-01T08:08:33;96328.25;;;25.89
50206;BMP280;36098;48.390;10.856;2022-09-01T08:11:00;96324.84;;;25.84
50206;BMP280;36098;48.390;10.856;2022-09-01T08:13:26;96330.16;;;25.84
50206;BMP280;36098;48.390;10.856;2022-09-01T08:15:52;96331.25;;;25.78
50206;BMP280;36098;48.390;10.856;2022-09-01T08:18:18;96337.53;;;25.82
50206;BMP280;36098;48.390;10.856;2022-09-01T08:20:43;96338.59;;;25.86
50206;BMP280;36098;48.390;10.856;2022-09-01T08:23:11;96340.66;;;25.89
50206;BMP280;36098;48.390;10.856;2022-09-01T08:25:37;96343.88;;;25.86
50206;BMP280;36098;48.390;10.856;2022-09-01T08:28:03;96340.47;;;25.80
50206;BMP280;36098;48.390;10.856;2022-09-01T08:30:30;96346.53;;;25.86
50206;BMP280;36098;48.390;10.856;2022-09-01T08:32:56;96349.66;;;25.93
50206;BMP280;36098;48.390;10.856;2022-09-01T08:35:22;96348.56;;;25.94
50206;BMP280;36098;48.390;10.856;2022-09-01T08:37:47;96348.78;;;25.97
50206;BMP280;36098;48.390;10.856;2022-09-01T08:40:16;96351.22;;;25.94
50206;BMP280;36098;48.390;10.856;2022-09-01T08:45:31;96358.19;;;25.85
50206;BMP280;36098;48.390;10.856;2022-09-01T08:48:04;96351.84;;;25.81
50206;BMP280;36098;48.390;10.856;2022-09-01T08:50:33;96360.81;;;25.85
50206;BMP280;36098;48.390;10.856;2022-09-01T08:53:19;96362.13;;;25.87
50206;BMP280;36098;48.390;10.856;2022-09-01T08:55:49;96370.63;;;25.84
50206;BMP280;36098;48.390;10.856;2022-09-01T08:58:16;96371.44;;;25.80
50206;BMP280;36098;48.390;10.856;2022-09-01T09:00:44;96365.03;;;25.86
50206;BMP280;36098;48.390;10.856;2022-09-01T09:09:02;96361.31;;;25.87
50206;BMP280;36098;48.390;10.856;2022-09-01T09:16:59;96360.00;;;25.89
50206;BMP280;36098;48.390;10.856;2022-09-01T09:19:32;96372.97;;;25.86
50206;BMP280;36098;48.390;10.856;2022-09-01T09:22:05;96358.91;;;25.90
50206;BMP280;36098;48.390;10.856;2022-09-01T09:27:34;96355.25;;;25.86
50206;BMP280;36098;48.390;10.856;2022-09-01T09:37:42;96361.75;;;25.99
50206;BMP280;36098;48.390;10.856;2022-09-01T09:42:39;96361.81;;;25.94
50206;BMP280;36098;48.390;10.856;2022-09-01T09:45:33;96355.38;;;26.00
50206;BMP280;36098;48.390;10.856;2022-09-01T09:47:59;96352.28;;;25.93
50206;BMP280;36098;48.390;10.856;2022-09-01T09:50:32;96353.63;;;25.90
50206;BMP280;36098;48.390;10.856;2022-09-01T09:53:25;96349.84;;;25.96
50206;BMP280;36098;48.390;10.856;2022-09-01T09:55:52;96344.88;;;25.90
50206;BMP280;36098;48.390;10.856;2022-09-01T09:58:21;96349.66;;;25.93
50206;BMP280;36098;48.390;10.856;2022-09-01T10:01:11;96349.28;;;25.99
50206;BMP280;36098;48.390;10.856;2022-09-01T10:03:50;96343.00;;;25.95
50206;BMP280;36098;48.390;10.856;2022-09-01T10:06:34;96344.84;;;25.95
50206;BMP280;36098;48.390;10.856;2022-09-01T10:09:06;96342.75;;;25.92
50206;BMP280;36098;48.390;10.856;2022-09-01T10:11:36;96343.78;;;25.96
50206;BMP280;36098;48.390;10.856;2022-09-01T10:14:12;96347.53;;;25.90
50206;BMP280;36098;48.390;10.856;2022-09-01T10:16:39;96350.16;;;25.95
50206;BMP280;36098;48.390;10.856;2022-09-01T10:19:10;96349.06;;;25.96
50206;BMP280;36098;48.390;10.856;2022-09-01T10:21:37;96343.72;;;26.01
50206;BMP280;36098;48.390;10.856;2022-09-01T10:24:33;96347.31;;;26.10
50206;BMP280;36098;48.390;10.856;2022-09-01T10:27:02;96342.03;;;26.10
50206;BMP280;36098;48.390;10.856;2022-09-01T10:29:31;96332.75;;;26.12
50206;BMP280;36098;48.390;10.856;2022-09-01T10:31:59;96335.31;;;26.17
50206;BMP280;36098;48.390;10.856;2022-09-01T10:34:27;96336.91;;;26.18
50206;BMP280;36098;48.390;10.856;2022-09-01T10:36:53;96340.84;;;26.21
50206;BMP280;36098;48.390;10.856;2022-09-01T10:39:20;96336.41;;;26.16
50206;BMP280;36098;48.390;10.856;2022-09-01T10:41:49;96324.72;;;26.17
50206;BMP280;36098;48.390;10.856;2022-09-01T10:44:29;96330.53;;;26.19
50206;BMP280;36098;48.390;10.856;2022-09-01T10:47:01;96335.06;;;26.19
50206;BMP280;36098;48.390;10.856;2022-09-01T10:51:54;96327.53;;;26.26
50206;BMP280;36098;48.390;10.856;2022-09-01T10:57:24;96331.25;;;26.25
50206;BMP280;36098;48.390;10.856;2022-09-01T10:59:51;96328.34;;;26.26
50206;BMP280;36098;48.390;10.856;2022-09-01T11:02:18;96327.53;;;26.26
50206;BMP280;36098;48.390;10.856;2022-09-01T11:20:35;96327.03;;;26.24
50206;BMP280;36098;48.390;10.856;2022-09-01T11:28:55;96326.97;;;26.29
50206;BMP280;36098;48.390;10.856;2022-09-01T11:31:39;96327.78;;;26.29
50206;BMP280;36098;48.390;10.856;2022-09-01T11:34:18;96315.63;;;26.28
50206;BMP280;36098;48.390;10.856;2022-09-01T11:36:49;96321.19;;;26.27
50206;BMP280;36098;48.390;10.856;2022-09-01T11:47:50;96310.03;;;26.30
50206;BMP280;36098;48.390;10.856;2022-09-01T11:50:36;96304.22;;;26.28
50206;BMP280;36098;48.390;10.856;2022-09-01T11:58:09;96301.06;;;26.26
50206;BMP280;36098;48.390;10.856;2022-09-01T12:00:39;96306.38;;;26.26
50206;BMP280;36098;48.390;10.856;2022-09-01T12:03:28;96298.00;;;26.19
50206;BMP280;36098;48.390;10.856;2022-09-01T12:05:56;96304.63;;;26.16
50206;BMP280;36098;48.390;10.856;2022-09-01T12:08:24;96296.44;;;26.18
50206;BMP280;36098;48.390;10.856;2022-09-01T12:11:02;96289.81;;;26.15
50206;BMP280;36098;48.390;10.856;2022-09-01T12:13:28;96289.22;;;26.23
50206;BMP280;36098;48.390;10.856;2022-09-01T12:15:56;96291.63;;;26.20
50206;BMP280;36098;48.390;10.856;2022-09-01T12:18:33;96292.88;;;26.27
50206;BMP280;36098;48.390;10.856;2022-09-01T12:21:01;96288.56;;;26.31
50206;BMP280;36098;48.390;10.856;2022-09-01T12:23:38;96279.56;;;26.32
50206;BMP280;36098;48.390;10.856;2022-09-01T12:26:12;96284.44;;;26.25
50206;BMP280;36098;48.390;10.856;2022-09-01T12:28:39;96283.84;;;26.28
50206;BMP280;36098;48.390;10.856;2022-09-01T12:31:11;96285.13;;;26.31
50206;BMP280;36098;48.390;10.856;2022-09-01T12:33:37;96283.19;;;26.18
50206;BMP280;36098;48.390;10.856;2022-09-01T12:36:26;96282.19;;;26.14
50206;BMP280;36098;48.390;10.856;2022-09-01T12:39:03;96280.63;;;26.13
50206;BMP280;36098;48.390;10.856;2022-09-01T12:41:43;96287.91;;;26.21
50206;BMP280;36098;48.390;10.856;2022-09-01T12:47:11;96281.47;;;26.27
50206;BMP280;36098;48.390;10.856;2022-09-01T12:49:42;96283.13;;;26.23
50206;BMP280;36098;48.390;10.856;2022-09-01T12:52:13;96275.19;;;26.23
50206;BMP280;36098;48.390;10.856;2022-09-01T12:54:44;96275.69;;;26.25
50206;BMP280;36098;48.390;10.856;2022-09-01T12:57:11;96284.47;;;26.20
50206;BMP280;36098;48.390;10.856;2022-09-01T12:59:44;96277.81;;;26.23
50206;BMP280;36098;48.390;10.856;2022-09-01T13:02:34;96277.25;;;26.26
50206;BMP280;36098;48.390;10.856;2022-09-01T13:05:26;96297.44;;;26.22
50206;BMP280;36098;48.390;10.856;2022-09-01T13:07:54;96284.47;;;26.20
50206;BMP280;36098;48.390;10.856;2022-09-01T13:10:20;96291.06;;;26.23
50206;BMP280;36098;48.390;10.856;2022-09-01T13:12:47;96285.25;;;26.21
50206;BMP280;36098;48.390;10.856;2022-09-01T13:15:13;96280.75;;;26.21
50206;BMP280;36098;48.390;10.856;2022-09-01T13:17:38;96288.91;;;26.25
50206;BMP280;36098;48.390;10.856;2022-09-01T13:20:07;96289.50;;;26.22
50206;BMP280;36098;48.390;10.856;2022-09-01T13:22:33;96281.47;;;26.27
50206;BMP280;36098;48.390;10.856;2022-09-01T13:24:59;96283.28;;;26.31
50206;BMP280;36098;48.390;10.856;2022-09-01T13:27:25;96287.50;;;26.32
50206;BMP280;36098;48.390;10.856;2022-09-01T13:29:50;96280.41;;;26.28
50206;BMP280;36098;48.390;10.856;2022-09-01T13:32:16;96278.81;;;26.27
50206;BMP280;36098;48.390;10.856;2022-09-01T13:34:42;96274.59;;;26.26
50206;BMP280;36098;48.390;10.856;2022-09-01T13:37:07;96276.19;;;26.27
50206;BMP280;36098;48.390;10.856;2022-09-01T13:39:33;96279.91;;;26.26
50206;BMP280;36098;48.390;10.856;2022-09-01T13:41:58;96274.53;;;26.31
50206;BMP280;36098;48.390;10.856;2022-09-01T13:44:23;96274.03;;;26.29
50206;BMP280;36098;48.390;10.856;2022-09-01T13:46:48;96271.69;;;26.27
50206;BMP280;36098;48.390;10.856;2022-09-01T13:49:14;96272.53;;;26.23
50206;BMP280;36098;48.390;10.856;2022-09-01T13:51:39;96273.34;;;26.23
50206;BMP280;36098;48.390;10.856;2022-09-01T13:54:04;96273.50;;;26.32
50206;BMP280;36098;48.390;10.856;2022-09-01T13:56:30;96274.03;;;26.29
50206;BMP280;36098;48.390;10.856;2022-09-01T13:58:55;96265.00;;;26.30
50206;BMP280;36098;48.390;10.856;2022-09-01T14:01:20;96264.25;;;26.29
50206;BMP280;36098;48.390;10.856;2022-09-01T14:03:47;96258.38;;;26.32
50206;BMP280;36098;48.390;10.856;2022-09-01T14:06:14;96256.22;;;26.34
50206;BMP280;36098;48.390;10.856;2022-09-01T14:08:39;96257.06;;;26.30
50206;BMP280;36098;48.390;10.856;2022-09-01T14:11:05;96258.16;;;26.29
50206;BMP280;36098;48.390;10.856;2022-09-01T14:13:30;96249.94;;;26.30
50206;BMP280;36098;48.390;10.856;2022-09-01T14:15:57;96249.59;;;26.37
50206;BMP280;36098;48.390;10.856;2022-09-01T14:18:23;96247.50;;;26.34
50206;BMP280;36098;48.390;10.856;2022-09-01T14:20:50;96249.59;;;26.37
50206;BMP280;36098;48.390;10.856;2022-09-01T14:23:17;96247.22;;;26.35
50206;BMP280;36098;48.390;10.856;2022-09-01T14:25:49;96241.72;;;26.32
50206;BMP280;36098;48.390;10.856;2022-09-01T14:28:15;96238.19;;;26.36
50206;BMP280;36098;48.390;10.856;2022-09-01T14:30:41;96242.72;;;26.36
50206;BMP280;36098;48.390;10.856;2022-09-01T14:33:08;96237.28;;;26.27
50206;BMP280;36098;48.390;10.856;2022-09-01T14:35:40;96244.41;;;26.27
50206;BMP280;36098;48.390;10.856;2022-09-01T14:38:06;96233.25;;;26.30
50206;BMP280;36098;48.390;10.856;2022-09-01T14:40:33;96215.75;;;26.34
50206;BMP280;36098;48.390;10.856;2022-09-01T14:43:01;96222.03;;;26.38
50206;BMP280;36098;48.390;10.856;2022-09-01T14:45:27;96215.25;;;26.32
50206;BMP280;36098;48.390;10.856;2022-09-01T14:47:56;96217.25;;;26.40
50206;BMP280;36098;48.390;10.856;2022-09-01T14:50:23;96220.47;;;26.37
50206;BMP280;36098;48.390;10.856;2022-09-01T14:52:52;96216.69;;;26.24
50206;BMP280;36098;48.390;10.856;2022-09-01T14:55:19;96224.13;;;26.22
50206;BMP280;36098;48.390;10.856;2022-09-01T14:57:44;96216.22;;;26.17
50206;BMP280;36098;48.390;10.856;2022-09-01T15:00:10;96220.66;;;26.22
50206;BMP280;36098;48.390;10.856;2022-09-01T15:02:38;96219.09;;;26.21
50206;BMP280;36098;48.390;10.856;2022-09-01T15:05:04;96218.28;;;26.20
50206;BMP280;36098;48.390;10.856;2022-09-01T15:07:29;96219.19;;;26.16
50206;BMP280;36098;48.390;10.856;2022-09-01T15:09:55;96221.00;;;26.15
50206;BMP280;36098;48.390;10.856;2022-09-01T15:12:22;96214.94;;;26.15
50206;BMP280;36098;48.390;10.856;2022-09-01T15:14:48;96208.09;;;26.14
50206;BMP280;36098;48.390;10.856;2022-09-01T15:17:14;96211.56;;;26.09
50206;BMP280;36098;48.390;10.856;2022-09-01T15:19:39;96209.50;;;26.25